sensor_id;sensor_type;location;lat;lon;timestamp;temperature;humidity
48994;DHT22;34804;49.214;12.276;2023-07-31T00:01:52;14.40;79.20
48994;DHT22;34804;49.214;12.276;2023-07-31T00:04:19;14.30;80.20
48994;DHT22;34804;49.214;12.276;2023-07-31T00:06:46;14.20;80.60
48994;DHT22;34804;49.214;12.276;2023-07-31T00:09:13;14.00;81.40
48994;DHT22;34804;49.214;12.276;2023-07-31T00:11:39;14.00;80.80
48994;DHT22;34804;49.214;12.276;2023-07-31T00:14:06;14.10;81.40
48994;DHT22;34804;49.214;12.276;2023-07-31T00:16:33;14.10;81.60
48994;DHT22;34804;49.214;12.276;2023-07-31T00:19:00;14.00;81.80
48994;DHT22;34804;49.214;12.276;2023-07-31T00:21:27;13.90;82.40
48994;DHT22;34804;49.214;12.276;2023-07-31T00:23:54;13.80;82.90
48994;DHT22;34804;49.214;12.276;2023-07-31T00:26:21;13.70;82.60
48994;DHT22;34804;49.214;12.276;2023-07-31T00:28:48;13.80;82.20
48994;DHT22;34804;49.214;12.276;2023-07-31T00:31:14;13.70;82.90
48994;DHT22;34804;49.214;12.276;2023-07-31T00:33:41;13.60;83.20
48994;DHT22;34804;49.214;12.276;2023-07-31T00:36:08;13.50;83.60
48994;DHT22;34804;49.214;12.276;2023-07-31T00:38:35;13.40;83.90
48994;DHT22;34804;49.214;12.276;2023-07-31T00:41:02;13.30;84.30
48994;DHT22;34804;49.214;12.276;2023-07-31T00:43:29;13.30;84.80
48994;DHT22;34804;49.214;12.276;2023-07-31T00:45:56;13.30;84.90
48994;DHT22;34804;49.214;12.276;2023-07-31T00:48:23;13.30;85.00
48994;DHT22;34804;49.214;12.276;2023-07-31T00:50:50;13.30;85.00
48994;DHT22;34804;49.214;12.276;2023-07-31T00:53:17;13.30;85.40
48994;DHT22;34804;49.214;12.276;2023-07-31T00:55:44;13.10;85.50
48994;DHT22;34804;49.214;12.276;2023-07-31T00:58:11;13.10;86.00
48994;DHT22;34804;49.214;12.276;2023-07-31T01:00:38;13.10;86.00
48994;DHT22;34804;49.214;12.276;2023-07-31T01:03:05;13.10;86.00
48994;DHT22;34804;49.214;12.276;2023-07-31T01:05:49;13.10;85.80
48994;DHT22;34804;49.214;12.276;2023-07-31T01:08:36;13.00;85.90
48994;DHT22;34804;49.214;12.276;2023-07-31T01:11:14;12.90;86.30
48994;DHT22;34804;49.214;12.276;2023-07-31T01:13:43;12.80;86.40
48994;DHT22;34804;49.214;12.276;2023-07-31T01:16:11;12.80;86.40
48994;DHT22;34804;49.214;12.276;2023-07-31T01:18:38;12.80;86.50
48994;DHT22;34804;49.214;12.276;2023-07-31T01:27:12;12.80;86.50
48994;DHT22;34804;49.214;12.276;2023-07-31T01:29:43;12.70;86.30
48994;DHT22;34804;49.214;12.276;2023-07-31T01:32:12;12.60;86.50
48994;DHT22;34804;49.214;12.276;2023-07-31T01:34:41;12.50;86.50
48994;DHT22;34804;49.214;12.276;2023-07-31T01:37:09;12.40;86.10
48994;DHT22;34804;49.214;12.276;2023-07-31T01:39:35;12.40;86.70
48994;DHT22;34804;49.214;12.276;2023-07-31T01:42:02;12.40;86.90
48994;DHT22;34804;49.214;12.276;2023-07-31T01:44:29;12.40;87.60
48994;DHT22;34804;49.214;12.276;2023-07-31T01:46:56;12.40;87.70
48994;DHT22;34804;49.214;12.276;2023-07-31T01:49:25;12.50;87.60
48994;DHT22;34804;49.214;12.276;2023-07-31T01:51:52;12.60;87.70
48994;DHT22;34804;49.214;12.276;2023-07-31T01:54:19;12.60;87.70
48994;DHT22;34804;49.214;12.276;2023-07-31T01:56:46;12.70;87.40
48994;DHT22;34804;49.214;12.276;2023-07-31T01:59:13;12.60;87.50
48994;DHT22;34804;49.214;12.276;2023-07-31T02:01:41;12.60;87.40
48994;DHT22;34804;49.214;12.276;2023-07-31T02:04:07;12.60;87.60
48994;DHT22;34804;49.214;12.276;2023-07-31T02:06:34;12.60;87.50
48994;DHT22;34804;49.214;12.276;2023-07-31T02:09:01;12.60;87.40
48994;DHT22;34804;49.214;12.276;2023-07-31T02:11:29;12.60;87.30
48994;DHT22;34804;49.214;12.276;2023-07-31T02:13:56;12.50;87.50
48994;DHT22;34804;49.214;12.276;2023-07-31T02:16:23;12.40;87.60
48994;DHT22;34804;49.214;12.276;2023-07-31T02:18:50;12.50;87.70
48994;DHT22;34804;49.214;12.276;2023-07-31T02:21:18;12.50;87.70
48994;DHT22;34804;49.214;12.276;2023-07-31T02:23:44;12.40;87.40
48994;DHT22;34804;49.214;12.276;2023-07-31T02:26:11;12.40;87.20
48994;DHT22;34804;49.214;12.276;2023-07-31T02:28:38;12.30;87.60
48994;DHT22;34804;49.214;12.276;2023-07-31T02:31:05;12.30;87.30
48994;DHT22;34804;49.214;12.276;2023-07-31T02:33:32;12.10;86.90
48994;DHT22;34804;49.214;12.276;2023-07-31T02:35:59;12.20;87.80
48994;DHT22;34804;49.214;12.276;2023-07-31T02:38:25;12.20;88.00
48994;DHT22;34804;49.214;12.276;2023-07-31T02:40:53;12.30;87.90
48994;DHT22;34804;49.214;12.276;2023-07-31T02:43:19;12.30;88.00
48994;DHT22;34804;49.214;12.276;2023-07-31T02:45:51;12.30;87.70
48994;DHT22;34804;49.214;12.276;2023-07-31T02:48:18;12.30;87.70
48994;DHT22;34804;49.214;12.276;2023-07-31T02:50:47;12.30;87.70
48994;DHT22;34804;49.214;12.276;2023-07-31T02:53:14;12.30;87.90
48994;DHT22;34804;49.214;12.276;2023-07-31T02:55:41;12.40;87.90
48994;DHT22;34804;49.214;12.276;2023-07-31T02:58:08;12.40;87.90
48994;DHT22;34804;49.214;12.276;2023-07-31T03:00:34;12.40;87.90
48994;DHT22;34804;49.214;12.276;2023-07-31T03:03:01;12.40;87.50
48994;DHT22;34804;49.214;12.276;2023-07-31T03:05:28;12.40;87.50
48994;DHT22;34804;49.214;12.276;2023-07-31T03:07:55;12.40;87.70
48994;DHT22;34804;49.214;12.276;2023-07-31T03:10:22;12.50;88.00
48994;DHT22;34804;49.214;12.276;2023-07-31T03:12:49;12.60;88.10
48994;DHT22;34804;49.214;12.276;2023-07-31T03:15:16;12.70;87.60
48994;DHT22;34804;49.214;12.276;2023-07-31T03:17:43;12.80;87.70
48994;DHT22;34804;49.214;12.276;2023-07-31T03:20:10;12.80;87.40
48994;DHT22;34804;49.214;12.276;2023-07-31T03:22:37;12.80;87.20
48994;DHT22;34804;49.214;12.276;2023-07-31T03:25:04;12.80;86.80
48994;DHT22;34804;49.214;12.276;2023-07-31T03:27:31;12.80;87.20
48994;DHT22;34804;49.214;12.276;2023-07-31T03:29:59;12.70;86.70
48994;DHT22;34804;49.214;12.276;2023-07-31T03:32:27;12.70;86.20
48994;DHT22;34804;49.214;12.276;2023-07-31T03:34:54;12.80;86.00
48994;DHT22;34804;49.214;12.276;2023-07-31T03:37:21;12.80;86.20
48994;DHT22;34804;49.214;12.276;2023-07-31T03:39:48;12.80;85.80
48994;DHT22;34804;49.214;12.276;2023-07-31T03:42:15;12.90;85.10
48994;DHT22;34804;49.214;12.276;2023-07-31T03:44:42;13.00;85.10
48994;DHT22;34804;49.214;12.276;2023-07-31T03:47:08;13.10;84.50
48994;DHT22;34804;49.214;12.276;2023-07-31T03:49:35;13.20;84.60
48994;DHT22;34804;49.214;12.276;2023-07-31T03:52:02;13.20;84.20
48994;DHT22;34804;49.214;12.276;2023-07-31T03:54:29;13.20;84.70
48994;DHT22;34804;49.214;12.276;2023-07-31T03:56:56;13.20;84.60
48994;DHT22;34804;49.214;12.276;2023-07-31T03:59:23;13.30;84.90
48994;DHT22;34804;49.214;12.276;2023-07-31T04:01:49;13.30;85.10
48994;DHT22;34804;49.214;12.276;2023-07-31T04:04:16;13.30;85.10
48994;DHT22;34804;49.214;12.276;2023-07-31T04:06:43;13.40;84.80
48994;DHT22;34804;49.214;12.276;2023-07-31T04:09:10;13.40;85.00
48994;DHT22;34804;49.214;12.276;2023-07-31T04:11:36;13.50;84.70
48994;DHT22;34804;49.214;12.276;2023-07-31T04:14:03;13.60;84.20
48994;DHT22;34804;49.214;12.276;2023-07-31T04:16:30;13.60;83.50
48994;DHT22;34804;49.214;12.276;2023-07-31T04:18:57;13.50;83.50
48994;DHT22;34804;49.214;12.276;2023-07-31T04:21:24;13.60;83.10
48994;DHT22;34804;49.214;12.276;2023-07-31T04:23:52;13.70;83.40
48994;DHT22;34804;49.214;12.276;2023-07-31T04:26:22;13.80;82.60
48994;DHT22;34804;49.214;12.276;2023-07-31T04:28:49;13.90;82.80
48994;DHT22;34804;49.214;12.276;2023-07-31T04:31:16;14.00;82.20
48994;DHT22;34804;49.214;12.276;2023-07-31T04:33:43;14.00;82.60
48994;DHT22;34804;49.214;12.276;2023-07-31T04:36:09;14.00;82.70
48994;DHT22;34804;49.214;12.276;2023-07-31T04:38:36;14.10;82.60
48994;DHT22;34804;49.214;12.276;2023-07-31T04:41:03;14.10;82.00
48994;DHT22;34804;49.214;12.276;2023-07-31T04:43:32;14.10;82.70
48994;DHT22;34804;49.214;12.276;2023-07-31T04:46:00;14.20;82.40
48994;DHT22;34804;49.214;12.276;2023-07-31T04:48:27;14.30;82.60
48994;DHT22;34804;49.214;12.276;2023-07-31T04:50:54;14.40;82.70
48994;DHT22;34804;49.214;12.276;2023-07-31T04:53:20;14.40;82.80
48994;DHT22;34804;49.214;12.276;2023-07-31T04:55:47;14.60;82.40
48994;DHT22;34804;49.214;12.276;2023-07-31T04:58:14;14.70;81.20
48994;DHT22;34804;49.214;12.276;2023-07-31T05:00:41;14.80;81.40
48994;DHT22;34804;49.214;12.276;2023-07-31T05:03:08;14.90;80.10
48994;DHT22;34804;49.214;12.276;2023-07-31T05:05:35;15.00;80.20
48994;DHT22;34804;49.214;12.276;2023-07-31T05:08:02;15.10;78.80
48994;DHT22;34804;49.214;12.276;2023-07-31T05:10:29;15.10;78.80
48994;DHT22;34804;49.214;12.276;2023-07-31T05:12:56;15.20;78.30
48994;DHT22;34804;49.214;12.276;2023-07-31T05:15:23;15.30;79.90
48994;DHT22;34804;49.214;12.276;2023-07-31T05:17:50;15.40;78.60
48994;DHT22;34804;49.214;12.276;2023-07-31T05:20:17;15.60;78.50
48994;DHT22;34804;49.214;12.276;2023-07-31T05:22:44;15.70;77.90
48994;DHT22;34804;49.214;12.276;2023-07-31T05:25:10;15.80;76.70
48994;DHT22;34804;49.214;12.276;2023-07-31T05:27:37;15.80;76.50
48994;DHT22;34804;49.214;12.276;2023-07-31T05:30:05;15.80;77.40
48994;DHT22;34804;49.214;12.276;2023-07-31T05:32:32;15.80;77.30
48994;DHT22;34804;49.214;12.276;2023-07-31T05:34:59;15.80;77.40
48994;DHT22;34804;49.214;12.276;2023-07-31T05:37:26;15.80;77.50
48994;DHT22;34804;49.214;12.276;2023-07-31T05:39:52;15.90;78.10
48994;DHT22;34804;49.214;12.276;2023-07-31T05:42:19;16.10;76.00
48994;DHT22;34804;49.214;12.276;2023-07-31T05:44:46;16.30;75.20
48994;DHT22;34804;49.214;12.276;2023-07-31T05:47:13;16.50;73.70
48994;DHT22;34804;49.214;12.276;2023-07-31T05:49:40;16.80;74.70
48994;DHT22;34804;49.214;12.276;2023-07-31T05:52:07;16.80;72.60
48994;DHT22;34804;49.214;12.276;2023-07-31T05:54:34;16.90;72.80
48994;DHT22;34804;49.214;12.276;2023-07-31T05:57:01;16.90;71.40
48994;DHT22;34804;49.214;12.276;2023-07-31T05:59:28;17.00;72.70
48994;DHT22;34804;49.214;12.276;2023-07-31T06:01:54;17.10;72.40
48994;DHT22;34804;49.214;12.276;2023-07-31T06:04:21;17.30;70.80
48994;DHT22;34804;49.214;12.276;2023-07-31T06:06:51;17.30;71.20
48994;DHT22;34804;49.214;12.276;2023-07-31T06:09:18;17.50;69.90
48994;DHT22;34804;49.214;12.276;2023-07-31T06:11:47;17.60;69.60
48994;DHT22;34804;49.214;12.276;2023-07-31T06:14:14;17.70;68.00
48994;DHT22;34804;49.214;12.276;2023-07-31T06:16:41;17.80;69.30
48994;DHT22;34804;49.214;12.276;2023-07-31T06:19:08;17.90;67.30
48994;DHT22;34804;49.214;12.276;2023-07-31T06:21:35;18.10;68.80
48994;DHT22;34804;49.214;12.276;2023-07-31T06:24:05;18.30;67.40
48994;DHT22;34804;49.214;12.276;2023-07-31T06:26:31;18.40;67.60
48994;DHT22;34804;49.214;12.276;2023-07-31T06:28:58;18.50;66.30
48994;DHT22;34804;49.214;12.276;2023-07-31T06:31:25;18.60;64.90
48994;DHT22;34804;49.214;12.276;2023-07-31T06:33:54;18.80;66.00
48994;DHT22;34804;49.214;12.276;2023-07-31T06:36:21;18.90;66.00
48994;DHT22;34804;49.214;12.276;2023-07-31T06:38:48;19.00;64.10
48994;DHT22;34804;49.214;12.276;2023-07-31T06:41:15;19.00;63.60
48994;DHT22;34804;49.214;12.276;2023-07-31T06:43:42;18.80;64.70
48994;DHT22;34804;49.214;12.276;2023-07-31T06:46:09;18.80;65.10
48994;DHT22;34804;49.214;12.276;2023-07-31T06:48:36;19.00;66.30
48994;DHT22;34804;49.214;12.276;2023-07-31T06:51:04;19.00;65.10
48994;DHT22;34804;49.214;12.276;2023-07-31T06:53:31;19.10;64.00
48994;DHT22;34804;49.214;12.276;2023-07-31T06:55:57;19.30;63.50
48994;DHT22;34804;49.214;12.276;2023-07-31T06:58:24;19.50;63.20
48994;DHT22;34804;49.214;12.276;2023-07-31T07:00:51;19.40;62.40
48994;DHT22;34804;49.214;12.276;2023-07-31T07:03:18;19.40;62.20
48994;DHT22;34804;49.214;12.276;2023-07-31T07:05:46;19.40;62.60
48994;DHT22;34804;49.214;12.276;2023-07-31T07:08:12;19.50;62.50
48994;DHT22;34804;49.214;12.276;2023-07-31T07:10:39;19.40;62.70
48994;DHT22;34804;49.214;12.276;2023-07-31T07:13:06;19.40;63.10
48994;DHT22;34804;49.214;12.276;2023-07-31T07:15:33;19.30;63.00
48994;DHT22;34804;49.214;12.276;2023-07-31T07:18:00;19.50;63.50
48994;DHT22;34804;49.214;12.276;2023-07-31T07:20:27;19.70;64.00
48994;DHT22;34804;49.214;12.276;2023-07-31T07:22:54;19.80;62.80
48994;DHT22;34804;49.214;12.276;2023-07-31T07:25:21;19.80;62.90
48994;DHT22;34804;49.214;12.276;2023-07-31T07:27:48;19.80;62.30
48994;DHT22;34804;49.214;12.276;2023-07-31T07:30:15;19.60;62.30
48994;DHT22;34804;49.214;12.276;2023-07-31T07:32:41;19.60;62.60
48994;DHT22;34804;49.214;12.276;2023-07-31T07:35:08;19.60;63.90
48994;DHT22;34804;49.214;12.276;2023-07-31T07:37:35;19.60;63.20
48994;DHT22;34804;49.214;12.276;2023-07-31T07:40:03;19.70;62.90
48994;DHT22;34804;49.214;12.276;2023-07-31T07:42:30;19.70;63.20
48994;DHT22;34804;49.214;12.276;2023-07-31T07:44:56;19.50;63.90
48994;DHT22;34804;49.214;12.276;2023-07-31T07:47:23;19.60;64.40
48994;DHT22;34804;49.214;12.276;2023-07-31T07:49:53;19.70;64.90
48994;DHT22;34804;49.214;12.276;2023-07-31T07:52:21;19.90;63.70
48994;DHT22;34804;49.214;12.276;2023-07-31T07:54:48;19.80;62.70
48994;DHT22;34804;49.214;12.276;2023-07-31T07:57:15;19.70;64.10
48994;DHT22;34804;49.214;12.276;2023-07-31T07:59:42;19.60;63.40
48994;DHT22;34804;49.214;12.276;2023-07-31T08:02:09;19.80;63.70
48994;DHT22;34804;49.214;12.276;2023-07-31T08:04:36;19.90;63.50
48994;DHT22;34804;49.214;12.276;2023-07-31T08:07:03;20.10;63.10
48994;DHT22;34804;49.214;12.276;2023-07-31T08:09:30;20.10;63.20
48994;DHT22;34804;49.214;12.276;2023-07-31T08:11:57;20.30;63.60
48994;DHT22;34804;49.214;12.276;2023-07-31T08:14:28;20.40;62.90
48994;DHT22;34804;49.214;12.276;2023-07-31T08:16:58;20.60;63.90
48994;DHT22;34804;49.214;12.276;2023-07-31T08:19:25;20.60;62.20
48994;DHT22;34804;49.214;12.276;2023-07-31T08:21:54;20.60;62.10
48994;DHT22;34804;49.214;12.276;2023-07-31T08:24:24;20.80;61.30
48994;DHT22;34804;49.214;12.276;2023-07-31T08:26:51;20.80;60.80
48994;DHT22;34804;49.214;12.276;2023-07-31T08:29:18;20.80;61.30
48994;DHT22;34804;49.214;12.276;2023-07-31T08:31:45;21.10;61.40
48994;DHT22;34804;49.214;12.276;2023-07-31T08:34:12;21.30;59.80
48994;DHT22;34804;49.214;12.276;2023-07-31T08:36:39;21.00;59.50
48994;DHT22;34804;49.214;12.276;2023-07-31T08:39:07;20.90;59.60
48994;DHT22;34804;49.214;12.276;2023-07-31T08:41:39;20.90;61.00
48994;DHT22;34804;49.214;12.276;2023-07-31T08:44:10;21.00;61.00
48994;DHT22;34804;49.214;12.276;2023-07-31T08:46:39;20.80;60.80
48994;DHT22;34804;49.214;12.276;2023-07-31T08:49:07;20.80;60.00
48994;DHT22;34804;49.214;12.276;2023-07-31T08:51:36;20.80;59.30
48994;DHT22;34804;49.214;12.276;2023-07-31T08:54:03;20.80;60.30
48994;DHT22;34804;49.214;12.276;2023-07-31T08:56:32;20.40;59.80
48994;DHT22;34804;49.214;12.276;2023-07-31T08:59:02;20.40;60.00
48994;DHT22;34804;49.214;12.276;2023-07-31T09:01:30;20.60;61.40
48994;DHT22;34804;49.214;12.276;2023-07-31T09:04:01;20.40;60.70
48994;DHT22;34804;49.214;12.276;2023-07-31T09:06:29;20.80;60.70
48994;DHT22;34804;49.214;12.276;2023-07-31T09:08:57;20.90;60.60
48994;DHT22;34804;49.214;12.276;2023-07-31T09:11:25;21.10;59.90
48994;DHT22;34804;49.214;12.276;2023-07-31T09:13:56;21.30;59.10
48994;DHT22;34804;49.214;12.276;2023-07-31T09:16:29;21.30;59.50
48994;DHT22;34804;49.214;12.276;2023-07-31T09:18:59;21.40;59.10
48994;DHT22;34804;49.214;12.276;2023-07-31T09:21:28;21.40;58.20
48994;DHT22;34804;49.214;12.276;2023-07-31T09:23:55;21.40;58.30
48994;DHT22;34804;49.214;12.276;2023-07-31T09:26:36;21.40;59.50
48994;DHT22;34804;49.214;12.276;2023-07-31T09:29:06;21.30;56.90
48994;DHT22;34804;49.214;12.276;2023-07-31T09:31:39;21.40;59.40
48994;DHT22;34804;49.214;12.276;2023-07-31T09:34:08;21.50;56.80
48994;DHT22;34804;49.214;12.276;2023-07-31T09:36:46;21.60;56.50
48994;DHT22;34804;49.214;12.276;2023-07-31T09:39:15;21.50;56.40
48994;DHT22;34804;49.214;12.276;2023-07-31T09:41:55;21.50;58.30
48994;DHT22;34804;49.214;12.276;2023-07-31T09:44:40;21.90;57.50
48994;DHT22;34804;49.214;12.276;2023-07-31T09:47:21;21.90;55.80
48994;DHT22;34804;49.214;12.276;2023-07-31T09:49:50;22.00;56.00
48994;DHT22;34804;49.214;12.276;2023-07-31T09:52:16;22.00;56.70
48994;DHT22;34804;49.214;12.276;2023-07-31T09:54:43;22.20;55.50
48994;DHT22;34804;49.214;12.276;2023-07-31T09:57:14;21.90;55.40
48994;DHT22;34804;49.214;12.276;2023-07-31T09:59:44;22.10;57.50
48994;DHT22;34804;49.214;12.276;2023-07-31T10:02:15;21.90;54.80
48994;DHT22;34804;49.214;12.276;2023-07-31T10:04:49;21.60;55.10
48994;DHT22;34804;49.214;12.276;2023-07-31T10:07:18;21.70;56.10
48994;DHT22;34804;49.214;12.276;2023-07-31T10:09:47;21.90;55.90
48994;DHT22;34804;49.214;12.276;2023-07-31T10:12:18;22.20;55.50
48994;DHT22;34804;49.214;12.276;2023-07-31T10:14:47;22.20;55.50
48994;DHT22;34804;49.214;12.276;2023-07-31T10:17:14;22.30;55.70
48994;DHT22;34804;49.214;12.276;2023-07-31T10:19:42;22.10;54.80
48994;DHT22;34804;49.214;12.276;2023-07-31T10:22:10;22.10;57.30
48994;DHT22;34804;49.214;12.276;2023-07-31T10:24:40;21.90;56.90
48994;DHT22;34804;49.214;12.276;2023-07-31T10:27:10;21.90;54.10
48994;DHT22;34804;49.214;12.276;2023-07-31T10:29:38;22.20;54.60
48994;DHT22;34804;49.214;12.276;2023-07-31T10:32:07;22.10;56.40
48994;DHT22;34804;49.214;12.276;2023-07-31T10:34:39;22.00;57.20
48994;DHT22;34804;49.214;12.276;2023-07-31T10:37:40;22.00;55.70
48994;DHT22;34804;49.214;12.276;2023-07-31T10:40:19;21.80;56.10
48994;DHT22;34804;49.214;12.276;2023-07-31T10:42:52;21.70;57.30
48994;DHT22;34804;49.214;12.276;2023-07-31T10:45:36;21.90;58.30
48994;DHT22;34804;49.214;12.276;2023-07-31T10:48:12;22.10;55.50
48994;DHT22;34804;49.214;12.276;2023-07-31T10:50:52;21.90;56.00
48994;DHT22;34804;49.214;12.276;2023-07-31T10:53:45;21.90;56.00
48994;DHT22;34804;49.214;12.276;2023-07-31T10:56:12;21.90;55.90
48994;DHT22;34804;49.214;12.276;2023-07-31T10:58:44;21.70;56.20
48994;DHT22;34804;49.214;12.276;2023-07-31T11:01:11;21.70;55.70
48994;DHT22;34804;49.214;12.276;2023-07-31T11:03:49;21.80;55.50
48994;DHT22;34804;49.214;12.276;2023-07-31T11:06:16;22.10;56.40
48994;DHT22;34804;49.214;12.276;2023-07-31T11:08:49;22.40;55.20
48994;DHT22;34804;49.214;12.276;2023-07-31T11:11:18;22.30;54.30
48994;DHT22;34804;49.214;12.276;2023-07-31T11:13:47;22.40;54.80
48994;DHT22;34804;49.214;12.276;2023-07-31T11:16:18;22.50;53.40
48994;DHT22;34804;49.214;12.276;2023-07-31T11:18:47;22.60;53.50
48994;DHT22;34804;49.214;12.276;2023-07-31T11:21:22;22.80;52.30
48994;DHT22;34804;49.214;12.276;2023-07-31T11:23:58;22.80;53.00
48994;DHT22;34804;49.214;12.276;2023-07-31T11:26:25;22.70;52.70
48994;DHT22;34804;49.214;12.276;2023-07-31T11:28:52;22.60;54.10
48994;DHT22;34804;49.214;12.276;2023-07-31T11:31:19;22.60;53.80
48994;DHT22;34804;49.214;12.276;2023-07-31T11:33:46;22.70;52.80
48994;DHT22;34804;49.214;12.276;2023-07-31T11:36:18;23.00;52.20
48994;DHT22;34804;49.214;12.276;2023-07-31T11:38:45;22.80;52.00
48994;DHT22;34804;49.214;12.276;2023-07-31T11:41:15;23.30;55.20
48994;DHT22;34804;49.214;12.276;2023-07-31T11:43:43;23.80;51.80
48994;DHT22;34804;49.214;12.276;2023-07-31T11:46:10;24.10;50.50
48994;DHT22;34804;49.214;12.276;2023-07-31T11:48:37;24.30;48.90
48994;DHT22;34804;49.214;12.276;2023-07-31T11:51:10;24.10;48.50
48994;DHT22;34804;49.214;12.276;2023-07-31T11:53:45;24.20;48.80
48994;DHT22;34804;49.214;12.276;2023-07-31T11:56:16;24.00;49.90
48994;DHT22;34804;49.214;12.276;2023-07-31T11:58:46;23.50;49.40
48994;DHT22;34804;49.214;12.276;2023-07-31T12:01:15;23.30;50.80
48994;DHT22;34804;49.214;12.276;2023-07-31T12:03:47;23.60;51.30
48994;DHT22;34804;49.214;12.276;2023-07-31T12:06:17;23.20;52.10
48994;DHT22;34804;49.214;12.276;2023-07-31T12:08:44;22.70;54.00
48994;DHT22;34804;49.214;12.276;2023-07-31T12:11:11;22.50;52.20
48994;DHT22;34804;49.214;12.276;2023-07-31T12:13:37;22.60;52.00
48994;DHT22;34804;49.214;12.276;2023-07-31T12:16:05;22.90;51.30
48994;DHT22;34804;49.214;12.276;2023-07-31T12:18:38;23.80;50.50
48994;DHT22;34804;49.214;12.276;2023-07-31T12:21:06;23.80;49.80
48994;DHT22;34804;49.214;12.276;2023-07-31T12:23:35;24.30;48.70
48994;DHT22;34804;49.214;12.276;2023-07-31T12:26:07;24.50;47.30
48994;DHT22;34804;49.214;12.276;2023-07-31T12:28:48;24.80;48.20
48994;DHT22;34804;49.214;12.276;2023-07-31T12:31:23;24.80;46.60
48994;DHT22;34804;49.214;12.276;2023-07-31T12:33:53;24.90;46.70
48994;DHT22;34804;49.214;12.276;2023-07-31T12:36:23;25.60;46.40
48994;DHT22;34804;49.214;12.276;2023-07-31T12:38:51;25.60;45.70
48994;DHT22;34804;49.214;12.276;2023-07-31T12:41:18;25.10;45.70
48994;DHT22;34804;49.214;12.276;2023-07-31T12:43:45;24.90;47.20
48994;DHT22;34804;49.214;12.276;2023-07-31T12:46:12;25.10;45.80
48994;DHT22;34804;49.214;12.276;2023-07-31T12:48:40;24.90;47.00
48994;DHT22;34804;49.214;12.276;2023-07-31T12:51:07;24.90;46.30
48994;DHT22;34804;49.214;12.276;2023-07-31T12:53:35;24.60;48.00
48994;DHT22;34804;49.214;12.276;2023-07-31T12:56:01;24.90;46.80
48994;DHT22;34804;49.214;12.276;2023-07-31T12:58:28;26.30;44.10
48994;DHT22;34804;49.214;12.276;2023-07-31T13:00:55;26.60;43.80
48994;DHT22;34804;49.214;12.276;2023-07-31T13:03:22;26.20;45.60
48994;DHT22;34804;49.214;12.276;2023-07-31T13:05:50;25.90;46.20
48994;DHT22;34804;49.214;12.276;2023-07-31T13:08:17;26.00;45.60
48994;DHT22;34804;49.214;12.276;2023-07-31T13:10:44;26.50;42.80
48994;DHT22;34804;49.214;12.276;2023-07-31T13:13:11;27.30;41.30
48994;DHT22;34804;49.214;12.276;2023-07-31T13:15:38;27.90;40.40
48994;DHT22;34804;49.214;12.276;2023-07-31T13:18:05;28.30;40.20
48994;DHT22;34804;49.214;12.276;2023-07-31T13:20:32;27.30;41.70
48994;DHT22;34804;49.214;12.276;2023-07-31T13:22:58;26.40;40.80
48994;DHT22;34804;49.214;12.276;2023-07-31T13:25:25;25.80;46.40
48994;DHT22;34804;49.214;12.276;2023-07-31T13:27:52;25.80;44.10
48994;DHT22;34804;49.214;12.276;2023-07-31T13:30:20;25.70;45.30
48994;DHT22;34804;49.214;12.276;2023-07-31T13:32:47;25.90;45.90
48994;DHT22;34804;49.214;12.276;2023-07-31T13:35:14;25.50;43.90
48994;DHT22;34804;49.214;12.276;2023-07-31T13:37:40;25.40;46.30
48994;DHT22;34804;49.214;12.276;2023-07-31T13:40:07;25.60;45.30
48994;DHT22;34804;49.214;12.276;2023-07-31T13:42:34;26.90;43.30
48994;DHT22;34804;49.214;12.276;2023-07-31T13:45:01;27.10;41.30
48994;DHT22;34804;49.214;12.276;2023-07-31T13:47:33;26.60;44.10
48994;DHT22;34804;49.214;12.276;2023-07-31T13:50:01;25.80;45.50
48994;DHT22;34804;49.214;12.276;2023-07-31T13:52:28;25.20;46.10
48994;DHT22;34804;49.214;12.276;2023-07-31T13:54:55;25.20;47.10
48994;DHT22;34804;49.214;12.276;2023-07-31T13:57:22;24.90;46.90
48994;DHT22;34804;49.214;12.276;2023-07-31T13:59:50;24.70;46.20
48994;DHT22;34804;49.214;12.276;2023-07-31T14:02:17;25.30;46.10
48994;DHT22;34804;49.214;12.276;2023-07-31T14:04:46;25.50;45.70
48994;DHT22;34804;49.214;12.276;2023-07-31T14:07:13;25.40;45.90
48994;DHT22;34804;49.214;12.276;2023-07-31T14:09:40;25.30;45.90
48994;DHT22;34804;49.214;12.276;2023-07-31T14:12:07;25.20;46.40
48994;DHT22;34804;49.214;12.276;2023-07-31T14:14:34;25.50;46.00
48994;DHT22;34804;49.214;12.276;2023-07-31T14:17:01;26.40;45.90
48994;DHT22;34804;49.214;12.276;2023-07-31T14:19:28;26.90;44.40
48994;DHT22;34804;49.214;12.276;2023-07-31T14:21:58;26.70;44.80
48994;DHT22;34804;49.214;12.276;2023-07-31T14:24:37;27.00;42.90
48994;DHT22;34804;49.214;12.276;2023-07-31T14:27:04;26.70;43.00
48994;DHT22;34804;49.214;12.276;2023-07-31T14:29:31;26.50;43.10
48994;DHT22;34804;49.214;12.276;2023-07-31T14:31:58;26.60;43.10
48994;DHT22;34804;49.214;12.276;2023-07-31T14:34:26;26.20;43.40
48994;DHT22;34804;49.214;12.276;2023-07-31T14:36:53;25.50;44.90
48994;DHT22;34804;49.214;12.276;2023-07-31T14:39:20;24.70;46.70
48994;DHT22;34804;49.214;12.276;2023-07-31T14:41:46;24.60;47.60
48994;DHT22;34804;49.214;12.276;2023-07-31T14:44:14;24.60;47.90
48994;DHT22;34804;49.214;12.276;2023-07-31T14:46:41;24.70;47.60
48994;DHT22;34804;49.214;12.276;2023-07-31T14:49:09;25.70;46.00
48994;DHT22;34804;49.214;12.276;2023-07-31T14:51:36;26.20;44.80
48994;DHT22;34804;49.214;12.276;2023-07-31T14:54:03;26.50;44.60
48994;DHT22;34804;49.214;12.276;2023-07-31T14:56:30;26.40;43.60
48994;DHT22;34804;49.214;12.276;2023-07-31T14:58:57;26.30;43.70
48994;DHT22;34804;49.214;12.276;2023-07-31T15:01:25;26.10;46.00
48994;DHT22;34804;49.214;12.276;2023-07-31T15:03:52;26.00;44.70
48994;DHT22;34804;49.214;12.276;2023-07-31T15:06:20;25.60;45.20
48994;DHT22;34804;49.214;12.276;2023-07-31T15:08:49;25.20;46.50
48994;DHT22;34804;49.214;12.276;2023-07-31T15:11:19;24.70;48.00
48994;DHT22;34804;49.214;12.276;2023-07-31T15:13:47;24.50;49.50
48994;DHT22;34804;49.214;12.276;2023-07-31T15:16:15;24.50;49.70
48994;DHT22;34804;49.214;12.276;2023-07-31T15:18:43;24.50;49.70
48994;DHT22;34804;49.214;12.276;2023-07-31T15:21:11;24.80;48.80
48994;DHT22;34804;49.214;12.276;2023-07-31T15:23:38;24.90;47.60
48994;DHT22;34804;49.214;12.276;2023-07-31T15:26:06;25.30;46.50
48994;DHT22;34804;49.214;12.276;2023-07-31T15:28:34;25.10;47.90